sensor_id;sensor_type;location;lat;lon;timestamp;temperature;humidity
48752;DHT22;34544;48.836;9.174;2022-07-05T00:00:56;17.40;99.90
48752;DHT22;34544;48.836;9.174;2022-07-05T00:03:22;17.30;99.90
48752;DHT22;34544;48.836;9.174;2022-07-05T00:05:48;17.20;99.90
48752;DHT22;34544;48.836;9.174;2022-07-05T00:08:15;17.20;99.90
48752;DHT22;34544;48.836;9.174;2022-07-05T00:10:40;17.10;99.90
48752;DHT22;34544;48.836;9.174;2022-07-05T00:13:06;17.10;99.90
48752;DHT22;34544;48.836;9.174;2022-07-05T00:15:32;17.10;99.90
48752;DHT22;34544;48.836;9.174;2022-07-05T00:17:58;17.10;99.90
48752;DHT22;34544;48.836;9.174;2022-07-05T00:20:24;17.00;99.90
48752;DHT22;34544;48.836;9.174;2022-07-05T00:22:50;17.00;99.90
48752;DHT22;34544;48.836;9.174;2022-07-05T00:25:16;16.90;99.90
48752;DHT22;34544;48.836;9.174;2022-07-05T00:27:42;17.00;99.90
48752;DHT22;34544;48.836;9.174;2022-07-05T00:30:08;16.90;99.90
48752;DHT22;34544;48.836;9.174;2022-07-05T00:32:34;16.90;99.90
48752;DHT22;34544;48.836;9.174;2022-07-05T00:35:01;16.90;99.90
48752;DHT22;34544;48.836;9.174;2022-07-05T00:37:26;16.90;99.90
48752;DHT22;34544;48.836;9.174;2022-07-05T00:39:52;17.00;99.90
48752;DHT22;34544;48.836;9.174;2022-07-05T00:42:17;17.00;99.90
48752;DHT22;34544;48.836;9.174;2022-07-05T00:44:43;16.90;99.90
48752;DHT22;34544;48.836;9.174;2022-07-05T00:47:10;16.90;99.90
48752;DHT22;34544;48.836;9.174;2022-07-05T00:49:37;16.90;99.90
48752;DHT22;34544;48.836;9.174;2022-07-05T00:52:04;16.90;99.90
48752;DHT22;34544;48.836;9.174;2022-07-05T00:54:33;16.80;99.90
48752;DHT22;34544;48.836;9.174;2022-07-05T00:57:00;16.80;99.90
48752;DHT22;34544;48.836;9.174;2022-07-05T00:59:26;16.70;99.90
48752;DHT22;34544;48.836;9.174;2022-07-05T01:01:52;16.70;99.90
48752;DHT22;34544;48.836;9.174;2022-07-05T01:04:18;16.70;99.90
48752;DHT22;34544;48.836;9.174;2022-07-05T01:06:46;16.60;99.90
48752;DHT22;34544;48.836;9.174;2022-07-05T01:09:13;16.60;99.90
48752;DHT22;34544;48.836;9.174;2022-07-05T01:11:45;16.50;99.90
48752;DHT22;34544;48.836;9.174;2022-07-05T01:14:17;16.50;99.90
48752;DHT22;34544;48.836;9.174;2022-07-05T01:16:43;16.50;99.90
48752;DHT22;34544;48.836;9.174;2022-07-05T01:19:10;16.40;99.90
48752;DHT22;34544;48.836;9.174;2022-07-05T01:21:42;16.40;99.90
48752;DHT22;34544;48.836;9.174;2022-07-05T01:24:10;16.30;99.90
48752;DHT22;34544;48.836;9.174;2022-07-05T01:26:37;16.30;99.90
48752;DHT22;34544;48.836;9.174;2022-07-05T01:29:02;16.30;99.90
48752;DHT22;34544;48.836;9.174;2022-07-05T01:31:28;16.20;99.90
48752;DHT22;34544;48.836;9.174;2022-07-05T01:33:54;16.20;99.90
48752;DHT22;34544;48.836;9.174;2022-07-05T01:36:20;16.20;99.90
48752;DHT22;34544;48.836;9.174;2022-07-05T01:38:46;16.20;99.90
48752;DHT22;34544;48.836;9.174;2022-07-05T01:41:12;16.10;99.90
48752;DHT22;34544;48.836;9.174;2022-07-05T01:43:38;16.10;99.90
48752;DHT22;34544;48.836;9.174;2022-07-05T01:46:05;16.00;99.90
48752;DHT22;34544;48.836;9.174;2022-07-05T01:48:33;16.00;99.90
48752;DHT22;34544;48.836;9.174;2022-07-05T01:51:07;16.00;99.90
48752;DHT22;34544;48.836;9.174;2022-07-05T01:53:36;15.90;99.90
48752;DHT22;34544;48.836;9.174;2022-07-05T01:56:04;15.90;99.90
48752;DHT22;34544;48.836;9.174;2022-07-05T01:58:31;15.80;99.90
48752;DHT22;34544;48.836;9.174;2022-07-05T02:00:58;15.80;99.90
48752;DHT22;34544;48.836;9.174;2022-07-05T02:03:25;15.70;99.90
48752;DHT22;34544;48.836;9.174;2022-07-05T02:05:51;15.70;99.90
48752;DHT22;34544;48.836;9.174;2022-07-05T02:08:19;15.70;99.90
48752;DHT22;34544;48.836;9.174;2022-07-05T02:10:45;15.60;99.90
48752;DHT22;34544;48.836;9.174;2022-07-05T02:13:12;15.60;99.90
48752;DHT22;34544;48.836;9.174;2022-07-05T02:15:39;15.50;99.90
48752;DHT22;34544;48.836;9.174;2022-07-05T02:18:07;15.50;99.90
48752;DHT22;34544;48.836;9.174;2022-07-05T02:20:34;15.50;99.90
48752;DHT22;34544;48.836;9.174;2022-07-05T02:23:01;15.50;99.90
48752;DHT22;34544;48.836;9.174;2022-07-05T02:25:28;15.40;99.90
48752;DHT22;34544;48.836;9.174;2022-07-05T02:27:56;15.40;99.90
48752;DHT22;34544;48.836;9.174;2022-07-05T02:30:22;15.30;99.90
48752;DHT22;34544;48.836;9.174;2022-07-05T02:32:48;15.30;99.90
48752;DHT22;34544;48.836;9.174;2022-07-05T02:35:14;15.30;99.90
48752;DHT22;34544;48.836;9.174;2022-07-05T02:37:41;15.20;99.90
48752;DHT22;34544;48.836;9.174;2022-07-05T02:40:11;15.20;99.90
48752;DHT22;34544;48.836;9.174;2022-07-05T02:42:41;15.20;99.90
48752;DHT22;34544;48.836;9.174;2022-07-05T02:45:10;15.20;99.90
48752;DHT22;34544;48.836;9.174;2022-07-05T02:47:37;15.10;99.90
48752;DHT22;34544;48.836;9.174;2022-07-05T02:50:04;15.10;99.90
48752;DHT22;34544;48.836;9.174;2022-07-05T02:52:32;15.10;99.90
48752;DHT22;34544;48.836;9.174;2022-07-05T02:54:58;15.00;99.90
48752;DHT22;34544;48.836;9.174;2022-07-05T02:57:24;15.00;99.90
48752;DHT22;34544;48.836;9.174;2022-07-05T02:59:51;14.90;99.90
48752;DHT22;34544;48.836;9.174;2022-07-05T03:02:17;14.90;99.90
48752;DHT22;34544;48.836;9.174;2022-07-05T03:04:43;14.90;99.90
48752;DHT22;34544;48.836;9.174;2022-07-05T03:07:09;14.90;99.90
48752;DHT22;34544;48.836;9.174;2022-07-05T03:09:35;14.80;99.90
48752;DHT22;34544;48.836;9.174;2022-07-05T03:12:02;14.90;99.90
48752;DHT22;34544;48.836;9.174;2022-07-05T03:14:30;14.80;99.90
48752;DHT22;34544;48.836;9.174;2022-07-05T03:16:56;14.80;99.90
48752;DHT22;34544;48.836;9.174;2022-07-05T03:19:23;14.80;99.90
48752;DHT22;34544;48.836;9.174;2022-07-05T03:21:49;14.80;99.90
48752;DHT22;34544;48.836;9.174;2022-07-05T03:24:14;14.70;99.90
48752;DHT22;34544;48.836;9.174;2022-07-05T03:26:40;14.70;99.90
48752;DHT22;34544;48.836;9.174;2022-07-05T03:29:06;14.60;99.90
48752;DHT22;34544;48.836;9.174;2022-07-05T03:31:32;14.70;99.90
48752;DHT22;34544;48.836;9.174;2022-07-05T03:34:01;14.70;99.90
48752;DHT22;34544;48.836;9.174;2022-07-05T03:36:26;14.70;99.90
48752;DHT22;34544;48.836;9.174;2022-07-05T03:38:53;14.70;99.90
48752;DHT22;34544;48.836;9.174;2022-07-05T03:41:19;14.60;99.90
48752;DHT22;34544;48.836;9.174;2022-07-05T03:43:46;14.70;99.90
48752;DHT22;34544;48.836;9.174;2022-07-05T03:46:12;14.70;99.90
48752;DHT22;34544;48.836;9.174;2022-07-05T03:48:40;14.70;99.90
48752;DHT22;34544;48.836;9.174;2022-07-05T03:51:06;14.70;99.90
48752;DHT22;34544;48.836;9.174;2022-07-05T03:53:32;14.70;99.90
48752;DHT22;34544;48.836;9.174;2022-07-05T03:55:59;14.70;99.90
48752;DHT22;34544;48.836;9.174;2022-07-05T03:58:25;14.70;99.90
48752;DHT22;34544;48.836;9.174;2022-07-05T04:00:51;14.70;99.90
48752;DHT22;34544;48.836;9.174;2022-07-05T04:03:20;14.70;99.90
48752;DHT22;34544;48.836;9.174;2022-07-05T04:05:45;14.70;99.90
48752;DHT22;34544;48.836;9.174;2022-07-05T04:08:11;14.80;99.90
48752;DHT22;34544;48.836;9.174;2022-07-05T04:10:42;14.80;99.90
48752;DHT22;34544;48.836;9.174;2022-07-05T04:13:08;14.80;99.90
48752;DHT22;34544;48.836;9.174;2022-07-05T04:15:33;14.80;99.90
48752;DHT22;34544;48.836;9.174;2022-07-05T04:18:01;14.80;99.90
48752;DHT22;34544;48.836;9.174;2022-07-05T04:20:31;14.80;99.90
48752;DHT22;34544;48.836;9.174;2022-07-05T04:22:57;14.90;99.90
48752;DHT22;34544;48.836;9.174;2022-07-05T04:25:24;14.90;99.90
48752;DHT22;34544;48.836;9.174;2022-07-05T04:28:06;15.00;99.90
48752;DHT22;34544;48.836;9.174;2022-07-05T04:30:33;15.00;99.90
48752;DHT22;34544;48.836;9.174;2022-07-05T04:32:59;15.10;99.90
48752;DHT22;34544;48.836;9.174;2022-07-05T04:35:25;15.10;99.90
48752;DHT22;34544;48.836;9.174;2022-07-05T04:37:53;15.20;99.90
48752;DHT22;34544;48.836;9.174;2022-07-05T04:40:20;15.30;99.90
48752;DHT22;34544;48.836;9.174;2022-07-05T04:42:45;15.40;99.90
48752;DHT22;34544;48.836;9.174;2022-07-05T04:45:13;15.40;99.90
48752;DHT22;34544;48.836;9.174;2022-07-05T04:47:39;15.50;99.90
48752;DHT22;34544;48.836;9.174;2022-07-05T04:50:06;15.60;99.90
48752;DHT22;34544;48.836;9.174;2022-07-05T04:52:33;15.70;99.90
48752;DHT22;34544;48.836;9.174;2022-07-05T04:54:58;15.80;99.90
48752;DHT22;34544;48.836;9.174;2022-07-05T04:57:36;15.90;99.90
48752;DHT22;34544;48.836;9.174;2022-07-05T05:00:19;16.00;99.90
48752;DHT22;34544;48.836;9.174;2022-07-05T05:02:45;16.20;99.90
48752;DHT22;34544;48.836;9.174;2022-07-05T05:05:11;16.30;99.90
48752;DHT22;34544;48.836;9.174;2022-07-05T05:07:37;16.40;99.90
48752;DHT22;34544;48.836;9.174;2022-07-05T05:10:06;16.50;99.90
48752;DHT22;34544;48.836;9.174;2022-07-05T05:12:32;16.70;99.90
48752;DHT22;34544;48.836;9.174;2022-07-05T05:14:58;16.80;99.90
48752;DHT22;34544;48.836;9.174;2022-07-05T05:17:24;16.90;99.90
48752;DHT22;34544;48.836;9.174;2022-07-05T05:19:49;17.10;99.90
48752;DHT22;34544;48.836;9.174;2022-07-05T05:22:15;17.20;99.90
48752;DHT22;34544;48.836;9.174;2022-07-05T05:24:40;17.40;99.90
48752;DHT22;34544;48.836;9.174;2022-07-05T05:27:06;17.50;99.90
48752;DHT22;34544;48.836;9.174;2022-07-05T05:29:32;17.60;99.90
48752;DHT22;34544;48.836;9.174;2022-07-05T05:31:57;17.70;99.90
48752;DHT22;34544;48.836;9.174;2022-07-05T05:34:24;17.80;99.90
48752;DHT22;34544;48.836;9.174;2022-07-05T05:36:50;17.90;99.90
48752;DHT22;34544;48.836;9.174;2022-07-05T05:39:16;18.00;99.90
48752;DHT22;34544;48.836;9.174;2022-07-05T05:41:41;18.10;99.90
48752;DHT22;34544;48.836;9.174;2022-07-05T05:44:07;18.20;99.90
48752;DHT22;34544;48.836;9.174;2022-07-05T05:46:33;18.30;99.90
48752;DHT22;34544;48.836;9.174;2022-07-05T05:48:58;18.30;99.90
48752;DHT22;34544;48.836;9.174;2022-07-05T05:51:24;18.50;99.90
48752;DHT22;34544;48.836;9.174;2022-07-05T05:53:50;18.50;99.90
48752;DHT22;34544;48.836;9.174;2022-07-05T05:56:16;18.60;99.90
48752;DHT22;34544;48.836;9.174;2022-07-05T05:58:41;18.70;99.90
48752;DHT22;34544;48.836;9.174;2022-07-05T06:01:07;18.80;99.90
48752;DHT22;34544;48.836;9.174;2022-07-05T06:03:33;18.90;99.90
48752;DHT22;34544;48.836;9.174;2022-07-05T06:05:58;18.90;99.90
48752;DHT22;34544;48.836;9.174;2022-07-05T06:08:24;19.00;99.90
48752;DHT22;34544;48.836;9.174;2022-07-05T06:10:50;19.70;99.90
48752;DHT22;34544;48.836;9.174;2022-07-05T06:13:16;19.10;99.90
48752;DHT22;34544;48.836;9.174;2022-07-05T06:15:42;19.20;99.90
48752;DHT22;34544;48.836;9.174;2022-07-05T06:18:09;19.30;99.90
48752;DHT22;34544;48.836;9.174;2022-07-05T06:20:36;19.40;99.90
48752;DHT22;34544;48.836;9.174;2022-07-05T06:23:04;19.50;99.90
48752;DHT22;34544;48.836;9.174;2022-07-05T06:25:30;19.60;99.90
48752;DHT22;34544;48.836;9.174;2022-07-05T06:27:59;19.60;99.90
48752;DHT22;34544;48.836;9.174;2022-07-05T06:35:20;20.00;99.90
48752;DHT22;34544;48.836;9.174;2022-07-05T06:42:51;20.50;99.90
48752;DHT22;34544;48.836;9.174;2022-07-05T06:48:03;20.50;99.90
48752;DHT22;34544;48.836;9.174;2022-07-05T06:50:31;20.60;99.90
48752;DHT22;34544;48.836;9.174;2022-07-05T06:52:57;20.70;99.50
48752;DHT22;34544;48.836;9.174;2022-07-05T06:55:23;20.80;99.90
48752;DHT22;34544;48.836;9.174;2022-07-05T06:58:00;20.90;99.70
48752;DHT22;34544;48.836;9.174;2022-07-05T07:02:52;21.40;99.90
48752;DHT22;34544;48.836;9.174;2022-07-05T07:05:18;21.50;99.90
48752;DHT22;34544;48.836;9.174;2022-07-05T07:12:57;22.30;99.90
48752;DHT22;34544;48.836;9.174;2022-07-05T07:15:22;22.50;99.90
48752;DHT22;34544;48.836;9.174;2022-07-05T07:17:50;24.10;98.40
48752;DHT22;34544;48.836;9.174;2022-07-05T07:20:16;22.90;98.30
48752;DHT22;34544;48.836;9.174;2022-07-05T07:22:42;23.20;97.50
48752;DHT22;34544;48.836;9.174;2022-07-05T07:25:08;23.30;96.80
48752;DHT22;34544;48.836;9.174;2022-07-05T07:27:44;23.50;97.00
48752;DHT22;34544;48.836;9.174;2022-07-05T07:30:12;23.80;95.90
48752;DHT22;34544;48.836;9.174;2022-07-05T07:32:38;23.90;95.40
48752;DHT22;34544;48.836;9.174;2022-07-05T07:35:05;24.10;95.30
48752;DHT22;34544;48.836;9.174;2022-07-05T07:37:30;24.20;95.30
48752;DHT22;34544;48.836;9.174;2022-07-05T07:39:56;24.30;95.20
48752;DHT22;34544;48.836;9.174;2022-07-05T07:42:22;24.50;94.00
48752;DHT22;34544;48.836;9.174;2022-07-05T07:44:48;24.50;94.30
48752;DHT22;34544;48.836;9.174;2022-07-05T07:47:13;24.60;92.60
48752;DHT22;34544;48.836;9.174;2022-07-05T07:49:39;24.70;94.40
48752;DHT22;34544;48.836;9.174;2022-07-05T07:54:33;24.90;92.30
48752;DHT22;34544;48.836;9.174;2022-07-05T07:56:58;25.10;92.90
48752;DHT22;34544;48.836;9.174;2022-07-05T07:59:30;25.20;92.80
48752;DHT22;34544;48.836;9.174;2022-07-05T08:01:56;25.30;92.90
48752;DHT22;34544;48.836;9.174;2022-07-05T08:04:21;25.50;93.30
48752;DHT22;34544;48.836;9.174;2022-07-05T08:09:13;25.60;95.00
48752;DHT22;34544;48.836;9.174;2022-07-05T08:11:39;25.80;93.30
48752;DHT22;34544;48.836;9.174;2022-07-05T08:14:05;26.00;93.00
48752;DHT22;34544;48.836;9.174;2022-07-05T08:16:31;26.10;91.60
48752;DHT22;34544;48.836;9.174;2022-07-05T08:18:57;26.20;91.60
48752;DHT22;34544;48.836;9.174;2022-07-05T08:21:41;26.30;92.20
48752;DHT22;34544;48.836;9.174;2022-07-05T08:24:10;26.40;91.40
48752;DHT22;34544;48.836;9.174;2022-07-05T08:26:37;26.50;92.00
48752;DHT22;34544;48.836;9.174;2022-07-05T08:29:08;26.70;91.00
48752;DHT22;34544;48.836;9.174;2022-07-05T08:31:43;27.00;91.20
48752;DHT22;34544;48.836;9.174;2022-07-05T08:34:09;27.00;88.80
48752;DHT22;34544;48.836;9.174;2022-07-05T08:36:35;27.00;90.70
48752;DHT22;34544;48.836;9.174;2022-07-05T08:39:01;27.10;90.10
48752;DHT22;34544;48.836;9.174;2022-07-05T08:41:28;27.40;90.60
48752;DHT22;34544;48.836;9.174;2022-07-05T08:43:56;27.70;89.90
48752;DHT22;34544;48.836;9.174;2022-07-05T08:46:23;27.80;87.50
48752;DHT22;34544;48.836;9.174;2022-07-05T08:48:51;28.00;88.00
48752;DHT22;34544;48.836;9.174;2022-07-05T08:51:21;28.10;88.60
48752;DHT22;34544;48.836;9.174;2022-07-05T08:53:48;28.40;89.50
48752;DHT22;34544;48.836;9.174;2022-07-05T08:56:15;28.40;86.00
48752;DHT22;34544;48.836;9.174;2022-07-05T08:58:41;28.40;85.90
48752;DHT22;34544;48.836;9.174;2022-07-05T09:01:08;28.50;85.10
48752;DHT22;34544;48.836;9.174;2022-07-05T09:03:39;28.60;86.40
48752;DHT22;34544;48.836;9.174;2022-07-05T09:06:10;28.80;86.70
48752;DHT22;34544;48.836;9.174;2022-07-05T09:08:37;28.90;86.40
48752;DHT22;34544;48.836;9.174;2022-07-05T09:11:12;28.90;84.20
48752;DHT22;34544;48.836;9.174;2022-07-05T09:13:40;28.70;83.00
48752;DHT22;34544;48.836;9.174;2022-07-05T09:16:06;28.50;83.70
48752;DHT22;34544;48.836;9.174;2022-07-05T09:18:45;28.50;85.80
48752;DHT22;34544;48.836;9.174;2022-07-05T09:21:21;28.60;84.70
48752;DHT22;34544;48.836;9.174;2022-07-05T09:27:04;29.10;85.40
48752;DHT22;34544;48.836;9.174;2022-07-05T09:29:30;29.50;85.50
48752;DHT22;34544;48.836;9.174;2022-07-05T09:31:55;29.60;84.00
48752;DHT22;34544;48.836;9.174;2022-07-05T09:34:21;29.90;86.20
48752;DHT22;34544;48.836;9.174;2022-07-05T09:37:00;30.20;81.90
48752;DHT22;34544;48.836;9.174;2022-07-05T09:47:23;30.90;78.10
48752;DHT22;34544;48.836;9.174;2022-07-05T09:49:50;31.10;76.50
48752;DHT22;34544;48.836;9.174;2022-07-05T09:52:29;31.30;76.90
48752;DHT22;34544;48.836;9.174;2022-07-05T09:57:29;31.60;78.10
48752;DHT22;34544;48.836;9.174;2022-07-05T10:00:09;31.70;76.10
48752;DHT22;34544;48.836;9.174;2022-07-05T10:02:36;31.50;76.10
48752;DHT22;34544;48.836;9.174;2022-07-05T10:07:43;31.90;75.10
48752;DHT22;34544;48.836;9.174;2022-07-05T10:10:14;32.10;74.00
48752;DHT22;34544;48.836;9.174;2022-07-05T10:12:42;32.30;72.50
48752;DHT22;34544;48.836;9.174;2022-07-05T10:15:10;32.60;71.30
48752;DHT22;34544;48.836;9.174;2022-07-05T10:17:41;32.80;68.50
48752;DHT22;34544;48.836;9.174;2022-07-05T10:22:49;32.20;70.20
48752;DHT22;34544;48.836;9.174;2022-07-05T10:25:14;32.00;67.80
48752;DHT22;34544;48.836;9.174;2022-07-05T10:27:42;32.20;70.20
48752;DHT22;34544;48.836;9.174;2022-07-05T10:30:08;32.20;68.90
48752;DHT22;34544;48.836;9.174;2022-07-05T10:32:35;32.40;70.40
48752;DHT22;34544;48.836;9.174;2022-07-05T10:35:02;32.80;69.60
48752;DHT22;34544;48.836;9.174;2022-07-05T10:37:30;32.90;66.60
48752;DHT22;34544;48.836;9.174;2022-07-05T10:39:57;33.10;68.90
48752;DHT22;34544;48.836;9.174;2022-07-05T10:42:25;33.40;66.40
48752;DHT22;34544;48.836;9.174;2022-07-05T10:44:53;33.70;67.10
48752;DHT22;34544;48.836;9.174;2022-07-05T10:47:18;33.70;65.60
48752;DHT22;34544;48.836;9.174;2022-07-05T10:50:00;33.70;65.80
48752;DHT22;34544;48.836;9.174;2022-07-05T10:52:26;33.60;66.80
48752;DHT22;34544;48.836;9.174;2022-07-05T10:57:42;33.90;65.60
48752;DHT22;34544;48.836;9.174;2022-07-05T11:00:09;34.20;64.70
48752;DHT22;34544;48.836;9.174;2022-07-05T11:02:36;34.40;63.60
48752;DHT22;34544;48.836;9.174;2022-07-05T11:05:02;34.40;63.60
48752;DHT22;34544;48.836;9.174;2022-07-05T11:07:59;34.70;64.30
48752;DHT22;34544;48.836;9.174;2022-07-05T11:10:25;34.90;65.80
48752;DHT22;34544;48.836;9.174;2022-07-05T11:12:51;35.20;64.50
48752;DHT22;34544;48.836;9.174;2022-07-05T11:15:17;35.30;62.50
48752;DHT22;34544;48.836;9.174;2022-07-05T11:17:43;35.50;65.10
48752;DHT22;34544;48.836;9.174;2022-07-05T11:23:01;35.80;60.30
48752;DHT22;34544;48.836;9.174;2022-07-05T11:25:32;36.20;62.30
48752;DHT22;34544;48.836;9.174;2022-07-05T11:28:08;36.50;62.80
48752;DHT22;34544;48.836;9.174;2022-07-05T11:30:56;36.20;61.30
48752;DHT22;34544;48.836;9.174;2022-07-05T11:35:54;36.10;61.10
48752;DHT22;34544;48.836;9.174;2022-07-05T11:38:20;35.80;60.60
48752;DHT22;34544;48.836;9.174;2022-07-05T11:40:47;35.80;62.00
48752;DHT22;34544;48.836;9.174;2022-07-05T11:43:12;35.10;60.40
48752;DHT22;34544;48.836;9.174;2022-07-05T11:45:38;35.30;63.20
48752;DHT22;34544;48.836;9.174;2022-07-05T11:48:04;35.70;63.40
48752;DHT22;34544;48.836;9.174;2022-07-05T11:50:32;35.90;63.60
48752;DHT22;34544;48.836;9.174;2022-07-05T11:53:02;35.80;62.40
48752;DHT22;34544;48.836;9.174;2022-07-05T11:55:30;36.10;62.30
48752;DHT22;34544;48.836;9.174;2022-07-05T11:57:57;36.50;62.10
48752;DHT22;34544;48.836;9.174;2022-07-05T12:00:34;36.60;70.10
48752;DHT22;34544;48.836;9.174;2022-07-05T12:03:12;36.80;64.00
48752;DHT22;34544;48.836;9.174;2022-07-05T12:05:38;36.70;58.90
48752;DHT22;34544;48.836;9.174;2022-07-05T12:08:04;36.30;60.70
48752;DHT22;34544;48.836;9.174;2022-07-05T12:10:30;36.00;61.20
48752;DHT22;34544;48.836;9.174;2022-07-05T12:13:14;36.10;63.90
48752;DHT22;34544;48.836;9.174;2022-07-05T12:15:39;36.20;62.70
48752;DHT22;34544;48.836;9.174;2022-07-05T12:18:07;36.10;63.20
48752;DHT22;34544;48.836;9.174;2022-07-05T12:20:35;35.90;62.40
48752;DHT22;34544;48.836;9.174;2022-07-05T12:23:01;35.90;62.40
48752;DHT22;34544;48.836;9.174;2022-07-05T12:25:29;35.70;61.90
48752;DHT22;34544;48.836;9.174;2022-07-05T12:27:56;35.80;62.00
48752;DHT22;34544;48.836;9.174;2022-07-05T12:30:23;36.20;62.70
48752;DHT22;34544;48.836;9.174;2022-07-05T12:33:20;36.40;61.40
48752;DHT22;34544;48.836;9.174;2022-07-05T12:35:46;36.90;62.10
48752;DHT22;34544;48.836;9.174;2022-07-05T12:38:17;36.10;60.00
48752;DHT22;34544;48.836;9.174;2022-07-05T12:40:49;35.40;60.20
48752;DHT22;34544;48.836;9.174;2022-07-05T12:43:21;35.80;60.70
48752;DHT22;34544;48.836;9.174;2022-07-05T12:46:03;35.70;61.30
48752;DHT22;34544;48.836;9.174;2022-07-05T12:48:37;36.20;61.20
48752;DHT22;34544;48.836;9.174;2022-07-05T12:51:07;36.40;60.80
48752;DHT22;34544;48.836;9.174;2022-07-05T12:53:34;36.80;61.40
48752;DHT22;34544;48.836;9.174;2022-07-05T12:56:23;37.20;60.60
48752;DHT22;34544;48.836;9.174;2022-07-05T12:59:09;37.60;64.80
48752;DHT22;34544;48.836;9.174;2022-07-05T13:01:38;37.70;61.20
48752;DHT22;34544;48.836;9.174;2022-07-05T13:04:08;36.90;59.80
48752;DHT22;34544;48.836;9.174;2022-07-05T13:06:42;36.60;62.50
48752;DHT22;34544;48.836;9.174;2022-07-05T13:09:10;36.40;61.50
48752;DHT22;34544;48.836;9.174;2022-07-05T13:11:36;36.60;61.40
48752;DHT22;34544;48.836;9.174;2022-07-05T13:14:01;36.50;60.60
48752;DHT22;34544;48.836;9.174;2022-07-05T13:16:27;35.90;60.00
48752;DHT22;34544;48.836;9.174;2022-07-05T13:18:53;36.30;62.40
48752;DHT22;34544;48.836;9.174;2022-07-05T13:21:18;36.80;60.90
48752;DHT22;34544;48.836;9.174;2022-07-05T13:23:44;37.20;60.60
48752;DHT22;34544;48.836;9.174;2022-07-05T13:26:10;37.50;59.70
48752;DHT22;34544;48.836;9.174;2022-07-05T13:28:36;37.80;63.40
48752;DHT22;34544;48.836;9.174;2022-07-05T13:31:01;37.90;61.20
48752;DHT22;34544;48.836;9.174;2022-07-05T13:33:27;37.90;64.10
48752;DHT22;34544;48.836;9.174;2022-07-05T13:35:53;37.30;64.20
48752;DHT22;34544;48.836;9.174;2022-07-05T13:38:19;36.80;62.60
48752;DHT22;34544;48.836;9.174;2022-07-05T13:40:45;36.90;62.50
48752;DHT22;34544;48.836;9.174;2022-07-05T13:43:10;37.10;64.00
48752;DHT22;34544;48.836;9.174;2022-07-05T13:45:36;37.40;62.20
48752;DHT22;34544;48.836;9.174;2022-07-05T13:48:02;37.00;61.50
48752;DHT22;34544;48.836;9.174;2022-07-05T13:50:28;36.90;63.40
48752;DHT22;34544;48.836;9.174;2022-07-05T13:52:57;36.70;60.50
48752;DHT22;34544;48.836;9.174;2022-07-05T13:55:22;36.50;61.00
48752;DHT22;34544;48.836;9.174;2022-07-05T13:57:48;36.20;60.40
48752;DHT22;34544;48.836;9.174;2022-07-05T14:00:14;36.20;60.50
48752;DHT22;34544;48.836;9.174;2022-07-05T14:02:40;36.60;60.50
48752;DHT22;34544;48.836;9.174;2022-07-05T14:05:06;36.80;60.00
48752;DHT22;34544;48.836;9.174;2022-07-05T14:07:32;37.30;60.70
48752;DHT22;34544;48.836;9.174;2022-07-05T14:09:58;37.70;60.80
48752;DHT22;34544;48.836;9.174;2022-07-05T14:12:23;38.10;60.50
48752;DHT22;34544;48.836;9.174;2022-07-05T14:14:49;38.00;65.60
48752;DHT22;34544;48.836;9.174;2022-07-05T14:17:14;37.60;64.10
48752;DHT22;34544;48.836;9.174;2022-07-05T14:19:40;37.40;63.80
48752;DHT22;34544;48.836;9.174;2022-07-05T14:22:06;37.10;63.60
48752;DHT22;34544;48.836;9.174;2022-07-05T14:24:32;36.80;64.70
48752;DHT22;34544;48.836;9.174;2022-07-05T14:26:58;36.50;64.00
48752;DHT22;34544;48.836;9.174;2022-07-05T14:29:23;36.80;64.70
48752;DHT22;34544;48.836;9.174;2022-07-05T14:31:49;36.90;63.30
48752;DHT22;34544;48.836;9.174;2022-07-05T14:34:14;36.90;62.50
48752;DHT22;34544;48.836;9.174;2022-07-05T14:36:40;36.00;62.80
48752;DHT22;34544;48.836;9.174;2022-07-05T14:39:08;35.30;63.10
48752;DHT22;34544;48.836;9.174;2022-07-05T14:41:34;35.20;62.80
48752;DHT22;34544;48.836;9.174;2022-07-05T14:43:59;35.60;62.90
48752;DHT22;34544;48.836;9.174;2022-07-05T14:46:28;36.10;62.20
48752;DHT22;34544;48.836;9.174;2022-07-05T14:48:54;36.40;60.50
48752;DHT22;34544;48.836;9.174;2022-07-05T14:51:19;36.60;60.60
48752;DHT22;34544;48.836;9.174;2022-07-05T14:53:45;36.90;60.40
48752;DHT22;34544;48.836;9.174;2022-07-05T14:56:13;37.00;60.00
48752;DHT22;34544;48.836;9.174;2022-07-05T14:58:39;37.10;60.20
48752;DHT22;34544;48.836;9.174;2022-07-05T15:01:05;37.20;60.40
48752;DHT22;34544;48.836;9.174;2022-07-05T15:03:31;37.30;59.00
48752;DHT22;34544;48.836;9.174;2022-07-05T15:05:56;37.30;58.00
48752;DHT22;34544;48.836;9.174;2022-07-05T15:08:22;37.20;58.30
48752;DHT22;34544;48.836;9.174;2022-07-05T15:10:48;37.10;58.80
48752;DHT22;34544;48.836;9.174;2022-07-05T15:13:14;37.10;59.60
48752;DHT22;34544;48.836;9.174;2022-07-05T15:15:40;37.20;58.90
48752;DHT22;34544;48.836;9.174;2022-07-05T15:18:05;36.50;57.70
48752;DHT22;34544;48.836;9.174;2022-07-05T15:20:31;36.60;59.60
48752;DHT22;34544;48.836;9.174;2022-07-05T15:22:57;36.80;59.60
48752;DHT22;34544;48.836;9.174;2022-07-05T15:25:23;36.80;59.00
48752;DHT22;34544;48.836;9.174;2022-07-05T15:27:48;37.00;59.10
48752;DHT22;34544;48.836;9.174;2022-07-05T15:30:14;37.10;58.50
48752;DHT22;34544;48.836;9.174;2022-07-05T15:32:41;36.90;58.50
48752;DHT22;34544;48.836;9.174;2022-07-05T15:35:07;36.60;58.20
48752;DHT22;34544;48.836;9.174;2022-07-05T15:37:33;36.70;59.30
48752;DHT22;34544;48.836;9.174;2022-07-05T15:39:58;36.70;58.70
48752;DHT22;34544;48.836;9.174;2022-07-05T15:42:25;36.90;59.60
48752;DHT22;34544;48.836;9.174;2022-07-05T15:44:51;36.60;58.70
48752;DHT22;34544;48.836;9.174;2022-07-05T15:47:16;36.50;58.40
48752;DHT22;34544;48.836;9.174;2022-07-05T15:49:42;36.50;58.20
48752;DHT22;34544;48.836;9.174;2022-07-05T15:52:08;36.60;59.10
48752;DHT22;34544;48.836;9.174;2022-07-05T15:54:34;36.80;59.50
48752;DHT22;34544;48.836;9.174;2022-07-05T15:57:00;36.70;57.50
48752;DHT22;34544;48.836;9.174;2022-07-05T15:59:26;36.50;58.50
48752;DHT22;34544;48.836;9.174;2022-07-05T16:01:52;36.00;58.40
48752;DHT22;34544;48.836;9.174;2022-07-05T16:04:18;36.10;59.20
48752;DHT22;34544;48.836;9.174;2022-07-05T16:06:44;36.10;59.70
48752;DHT22;34544;48.836;9.174;2022-07-05T16:09:10;36.20;59.10
48752;DHT22;34544;48.836;9.174;2022-07-05T16:11:35;36.10;59.40
48752;DHT22;34544;48.836;9.174;2022-07-05T16:14:01;36.30;59.10
48752;DHT22;34544;48.836;9.174;2022-07-05T16:16:27;35.90;59.10
48752;DHT22;34544;48.836;9.174;2022-07-05T16:18:53;36.00;59.30
48752;DHT22;34544;48.836;9.174;2022-07-05T16:21:18;35.90;58.90
48752;DHT22;34544;48.836;9.174;2022-07-05T16:23:46;35.90;59.20